Latest METARs, TAFs and NOTAMs for MMTO


---------------------------------------------------------------------------
	(OBSERVATIONS)
MMTO 220052Z 13004KT 4SM -RA  BKN015CB OVC070 13/11 A3033  RMK
    60155 8/33/=
MMTO 220033Z 09003KT 2SM -RA HZ BKN015CB OVC080 14/11 A3032 RMK
    8/33/ -RAB30=
MMTO 220033Z 09003KT 2SM -RA HZ  BKN015CB OVC080 14/11 A3032
     RMK 8/33/ -RAB30= TX_OP
MMTO 212353Z 05005KT 6SM  BKN015CB OVC080 14/10 A3030  RMK SLP095
    52009 902 8/33/ HZY OCNL DROPS=
MMTO 212248Z 07005KT 6SM  BKN015CB OVC080 15/10 A3028  RMK 8/33/
    HZY=
---------------------------------------------------------------------------
	(TERMINAL AREA FORECAST)
MMTO 212331Z 2200/2306 07005KT 5SM -RA BKN015CB OVC080
    TX20/2220Z TN10/2212Z
    TEMPO 2201/2205 3SM TSRA OVC015CB
    FM220700 34005KT 5SM HZ SCT015 BKN080
    FM221000 00000KT 4SM HZ SCT015
    TEMPO 2212/2216 3SM BR HZ
    FM221800 12012KT 5SM HZ SCT015CB BKN080 BKN250
    TEMPO 2222/2302 BKN015CB
    FM230500 34005KT 6SM HZ SCT015 SCT080=
---------------------------------------------------------------------------
	(NOTAMS)


MMTO A5314/18 GUN LGT TWR U/S. 12 SEP 18:19 2018 UNTIL 31 DEC
    23:59 2018. CREATED: 12 SEP 18:25 2018

MMTO A5551/18 RWY 15/33 CLSD. 1600/1700 ONLY DAYS TUE, 25 SEP
    16:00 2018 UNTIL 23 OCT 17:00 2018. CREATED: 20 SEP 00:48
    2018

MMTO A6362/18 RWY 15/33 CLSD. 0500/1100 DAY 20 0400/1100 DAYS
    21 Y 22, 20 OCT 03:40 2018 UNTIL 22 OCT 11:00 2018. CREATED:
    20 OCT 03:43 2018

---------------------------------------------------------------------------